Time;durP1;ratioP1;P1;durP2;ratioP2;P2;SDS_P1;SDS_P2;PMS_P1;PMS_P2;Temp;Humidity;BMP_temperature;BMP_pressure;BME280_temperature;BME280_humidity;BME280_pressure;Samples;Min_cycle;Max_cycle;Signal;HPM_P1;HPM_P2
2021/06/17 00:01:10;;;;;;;5.35;3.10;;;21.70;57.20;;;;;;3591653;39;20613;-74
2021/06/17 00:03:36;;;;;;;4.18;2.72;;;21.70;57.40;;;;;;3595444;39;20064;-73
2021/06/17 00:06:02;;;;;;;3.20;2.60;;;21.60;57.40;;;;;;3591090;39;20036;-73
2021/06/17 00:08:28;;;;;;;5.90;2.72;;;21.70;57.60;;;;;;3591390;39;20769;-73
2021/06/17 00:10:55;;;;;;;4.65;3.00;;;21.70;57.90;;;;;;3588647;39;20060;-74
2021/06/17 00:13:27;;;;;;;3.72;2.85;;;21.70;58.10;;;;;;3597597;39;20171;-73
2021/06/17 00:15:59;;;;;;;3.92;2.40;;;21.60;58.10;;;;;;3591038;39;20064;-73
2021/06/17 00:18:25;;;;;;;3.00;2.70;;;21.60;58.30;;;;;;3588535;39;20054;-73
2021/06/17 00:20:51;;;;;;;4.75;2.83;;;21.70;58.40;;;;;;3589828;39;20249;-73
2021/06/17 00:23:17;;;;;;;3.35;2.75;;;21.60;58.30;;;;;;3581065;39;20052;-73
2021/06/17 00:25:43;;;;;;;3.13;2.63;;;21.60;58.60;;;;;;3587548;39;20031;-73
2021/06/17 00:28:10;;;;;;;5.65;3.15;;;21.60;58.90;;;;;;3587590;39;20043;-73
2021/06/17 00:30:37;;;;;;;5.38;3.08;;;21.60;58.80;;;;;;3596192;39;20036;-73
2021/06/17 00:33:03;;;;;;;5.32;3.20;;;21.60;59.10;;;;;;3593489;39;20030;-73
2021/06/17 00:35:29;;;;;;;6.15;3.30;;;21.60;59.30;;;;;;3589751;39;20032;-73
2021/06/17 00:37:57;;;;;;;3.67;3.08;;;21.60;59.40;;;;;;3589773;39;20104;-75
2021/06/17 00:40:23;;;;;;;3.00;2.70;;;21.60;59.70;;;;;;3593370;39;20040;-74
2021/06/17 00:42:52;;;;;;;3.53;3.03;;;21.50;59.70;;;;;;3597244;39;20038;-74
2021/06/17 00:45:22;;;;;;;5.60;3.28;;;21.50;59.90;;;;;;3597555;39;20324;-73
2021/06/17 00:47:48;;;;;;;5.13;3.58;;;21.50;60.10;;;;;;3595371;39;20032;-73
2021/06/17 00:50:15;;;;;;;5.13;3.10;;;21.40;60.30;;;;;;3587906;39;20024;-73
2021/06/17 00:52:41;;;;;;;5.63;2.75;;;21.40;60.50;;;;;;3593047;39;20410;-73
2021/06/17 00:55:07;;;;;;;4.55;3.30;;;21.40;60.70;;;;;;3584172;39;20047;-73
2021/06/17 00:57:33;;;;;;;5.35;3.72;;;21.40;60.70;;;;;;3597332;39;20032;-73
2021/06/17 00:59:59;;;;;;;7.10;4.15;;;21.40;61.10;;;;;;3596143;39;20039;-73
2021/06/17 01:02:25;;;;;;;3.92;3.50;;;21.40;61.40;;;;;;3593682;39;20071;-74
2021/06/17 01:04:51;;;;;;;3.70;3.30;;;21.40;61.40;;;;;;3596927;39;20313;-73
2021/06/17 01:07:34;;;;;;;8.32;3.88;;;21.40;61.60;;;;;;3597004;39;20028;-73
2021/06/17 01:10:09;;;;;;;7.03;4.25;;;21.40;61.60;;;;;;3589537;39;20068;-74
2021/06/17 01:13:02;;;;;;;4.88;3.65;;;21.40;61.90;;;;;;3593945;39;20025;-74
2021/06/17 01:15:31;;;;;;;5.28;4.10;;;21.30;62.10;;;;;;3595663;39;20056;-73
2021/06/17 01:18:11;;;;;;;5.38;3.95;;;21.40;62.30;;;;;;3594265;39;20472;-73
2021/06/17 01:20:54;;;;;;;5.13;3.97;;;21.30;62.50;;;;;;3594811;39;20051;-74
2021/06/17 01:23:59;;;;;;;7.75;4.22;;;21.30;62.70;;;;;;3597890;39;20119;-74
2021/06/17 01:27:00;;;;;;;4.72;4.15;;;21.30;63.10;;;;;;3595219;39;20064;-74
2021/06/17 01:29:28;;;;;;;6.35;4.20;;;21.30;63.20;;;;;;3575654;39;20036;-73
2021/06/17 01:31:55;;;;;;;6.35;4.00;;;21.30;63.40;;;;;;3596001;39;20042;-73
2021/06/17 01:34:23;;;;;;;7.05;4.35;;;21.30;63.60;;;;;;3593423;39;20314;-74
2021/06/17 01:36:57;;;;;;;5.00;4.50;;;21.20;63.60;;;;;;3589861;39;20111;-74
2021/06/17 01:39:24;;;;;;;6.88;4.85;;;21.20;64.00;;;;;;3593672;39;20042;-74
2021/06/17 01:41:52;;;;;;;5.55;4.60;;;21.20;64.10;;;;;;3593579;39;20028;-74
2021/06/17 01:44:21;;;;;;;6.90;4.88;;;21.10;64.30;;;;;;3591769;39;20047;-74
2021/06/17 01:46:48;;;;;;;4.78;4.28;;;21.10;64.60;;;;;;3594337;39;20137;-74
2021/06/17 01:49:16;;;;;;;7.68;4.80;;;21.10;64.80;;;;;;3596325;39;20028;-74
2021/06/17 01:51:42;;;;;;;5.30;4.15;;;21.10;65.10;;;;;;3597707;39;20040;-74
2021/06/17 01:54:09;;;;;;;7.78;5.00;;;21.00;65.30;;;;;;3595490;39;20705;-74
2021/06/17 01:56:35;;;;;;;9.52;5.03;;;21.00;65.40;;;;;;3596619;39;20039;-74
2021/06/17 01:59:03;;;;;;;6.57;5.03;;;21.00;65.60;;;;;;3598816;39;20042;-74
2021/06/17 02:01:32;;;;;;;6.30;5.13;;;21.00;65.60;;;;;;3598037;39;20026;-74
2021/06/17 02:04:03;;;;;;;5.82;5.00;;;21.00;65.90;;;;;;3598549;39;20040;-74
2021/06/17 02:06:30;;;;;;;5.40;4.82;;;21.00;66.00;;;;;;3599050;39;20061;-74
2021/06/17 02:08:58;;;;;;;6.20;4.93;;;20.90;66.10;;;;;;3596112;39;20032;-74
2021/06/17 02:11:25;;;;;;;6.30;5.20;;;20.90;66.30;;;;;;3589251;39;20457;-74
2021/06/17 02:13:52;;;;;;;6.80;5.68;;;20.90;66.40;;;;;;3597351;39;20024;-74
2021/06/17 02:16:20;;;;;;;7.07;4.95;;;20.90;66.80;;;;;;3591647;39;20039;-74
2021/06/17 02:18:47;;;;;;;6.97;5.53;;;20.90;66.80;;;;;;3585969;39;20573;-74
2021/06/17 02:21:14;;;;;;;10.57;5.32;;;20.80;67.10;;;;;;3586704;39;20058;-74
2021/06/17 02:23:44;;;;;;;6.25;5.00;;;20.80;67.60;;;;;;3598972;39;20221;-73
2021/06/17 02:26:11;;;;;;;8.43;5.78;;;20.80;67.40;;;;;;3594352;39;20031;-75
2021/06/17 02:28:41;;;;;;;6.68;5.78;;;20.70;67.60;;;;;;3591519;39;20149;-74
2021/06/17 02:31:11;;;;;;;8.15;5.45;;;20.80;67.80;;;;;;3589538;39;20503;-74
2021/06/17 02:33:38;;;;;;;6.22;5.63;;;20.80;67.80;;;;;;3595012;39;20044;-74
2021/06/17 02:36:06;;;;;;;7.60;6.25;;;20.80;67.90;;;;;;3592618;39;20032;-74
2021/06/17 02:38:40;;;;;;;10.00;6.63;;;20.80;68.00;;;;;;3589589;39;20071;-74
2021/06/17 02:41:10;;;;;;;9.60;6.75;;;20.80;68.30;;;;;;3595012;39;20040;-74
2021/06/17 02:43:40;;;;;;;8.45;5.90;;;20.80;68.40;;;;;;3595495;39;20123;-74
2021/06/17 02:46:06;;;;;;;11.55;7.07;;;20.80;68.50;;;;;;3588666;39;20132;-74
2021/06/17 02:48:32;;;;;;;7.18;5.97;;;20.80;68.80;;;;;;3593984;39;20028;-73
2021/06/17 02:50:59;;;;;;;7.75;6.32;;;20.80;68.90;;;;;;3594450;39;20070;-74
2021/06/17 02:53:25;;;;;;;6.70;6.00;;;20.70;69.10;;;;;;3588408;39;20015;-74
2021/06/17 02:55:51;;;;;;;8.25;6.57;;;20.70;69.20;;;;;;3593139;39;20032;-73
2021/06/17 02:58:26;;;;;;;8.20;6.95;;;20.70;69.40;;;;;;3593017;39;20032;-74
2021/06/17 03:01:03;;;;;;;8.40;6.40;;;20.70;69.60;;;;;;3596726;39;20044;-74
2021/06/17 03:03:59;;;;;;;7.75;6.38;;;20.70;69.60;;;;;;3595750;39;20035;-74
2021/06/17 03:06:29;;;;;;;7.50;6.68;;;20.70;69.70;;;;;;3582652;39;20061;-74
2021/06/17 03:08:57;;;;;;;7.40;6.68;;;20.70;70.00;;;;;;3598663;39;20088;-74
2021/06/17 03:11:26;;;;;;;9.60;7.30;;;20.70;70.10;;;;;;3590017;39;20036;-74
2021/06/17 03:13:57;;;;;;;8.00;6.90;;;20.70;70.20;;;;;;3597741;39;20040;-74
2021/06/17 03:16:32;;;;;;;8.52;7.15;;;20.70;70.30;;;;;;3589506;39;20032;-74
2021/06/17 03:19:00;;;;;;;10.63;7.57;;;20.70;70.40;;;;;;3595331;39;20852;-74
2021/06/17 03:21:29;;;;;;;8.57;6.93;;;20.80;70.50;;;;;;3589467;39;20797;-73
2021/06/17 03:23:56;;;;;;;10.27;7.70;;;20.80;70.60;;;;;;3594399;39;20050;-75
2021/06/17 03:26:23;;;;;;;8.68;7.65;;;20.80;70.50;;;;;;3595108;39;20032;-74
2021/06/17 03:28:50;;;;;;;11.32;7.75;;;20.80;70.40;;;;;;3597382;39;20342;-75
2021/06/17 03:31:17;;;;;;;9.85;8.27;;;20.80;70.70;;;;;;3596334;39;20424;-75
2021/06/17 03:33:45;;;;;;;8.27;7.50;;;20.80;70.80;;;;;;3596273;39;20161;-75
2021/06/17 03:36:11;;;;;;;10.13;8.30;;;20.80;71.20;;;;;;3597182;39;20040;-75
2021/06/17 03:38:39;;;;;;;9.32;8.02;;;20.80;70.70;;;;;;3592173;39;20031;-75
2021/06/17 03:41:06;;;;;;;8.77;7.68;;;20.80;70.80;;;;;;3593258;39;20063;-75
2021/06/17 03:43:33;;;;;;;9.95;8.02;;;20.90;71.00;;;;;;3594298;39;20046;-75
2021/06/17 03:46:00;;;;;;;8.85;7.95;;;20.80;71.10;;;;;;3589009;39;20689;-75
2021/06/17 03:48:28;;;;;;;8.85;7.95;;;20.90;71.20;;;;;;3597257;39;20121;-75
2021/06/17 03:50:53;;;;;;;9.88;8.40;;;20.90;71.20;;;;;;3586859;39;20035;-75
2021/06/17 03:53:20;;;;;;;10.43;8.90;;;20.90;71.20;;;;;;3598371;39;20064;-75
2021/06/17 03:55:48;;;;;;;9.13;8.07;;;20.90;71.40;;;;;;3585778;39;20042;-75
2021/06/17 03:58:13;;;;;;;9.63;8.23;;;20.90;71.50;;;;;;3594531;39;20020;-75
2021/06/17 04:00:40;;;;;;;9.95;8.23;;;21.00;71.80;;;;;;3595034;39;20032;-74
2021/06/17 04:03:08;;;;;;;10.63;8.43;;;21.00;71.80;;;;;;3597485;39;20027;-75
2021/06/17 04:05:38;;;;;;;10.05;8.95;;;21.00;72.00;;;;;;3594475;39;20159;-75
2021/06/17 04:08:08;;;;;;;10.85;9.30;;;21.00;72.30;;;;;;3591889;39;20673;-75
2021/06/17 04:10:34;;;;;;;10.45;8.55;;;20.90;72.20;;;;;;3592523;39;20040;-75
2021/06/17 04:13:01;;;;;;;11.43;9.68;;;21.00;72.30;;;;;;3592749;39;20032;-75
2021/06/17 04:15:29;;;;;;;11.15;8.13;;;21.00;72.40;;;;;;3597346;39;20024;-75
2021/06/17 04:17:59;;;;;;;11.68;9.60;;;21.00;72.20;;;;;;3596350;39;20036;-75
2021/06/17 04:20:32;;;;;;;14.77;9.32;;;21.10;72.40;;;;;;3595537;39;20747;-75
2021/06/17 04:23:01;;;;;;;10.52;9.43;;;21.10;72.60;;;;;;3582108;39;20030;-75
2021/06/17 04:25:28;;;;;;;10.75;9.35;;;21.10;72.40;;;;;;3593434;39;20032;-75
2021/06/17 04:27:57;;;;;;;10.50;8.50;;;21.20;72.60;;;;;;3596482;39;20033;-75
2021/06/17 04:30:26;;;;;;;11.02;9.82;;;21.20;72.60;;;;;;3587791;39;20027;-75
2021/06/17 04:32:54;;;;;;;12.40;9.50;;;21.20;72.40;;;;;;3596707;39;20073;-75
2021/06/17 04:35:21;;;;;;;14.27;9.98;;;21.30;72.40;;;;;;3596904;39;20021;-76
2021/06/17 04:37:48;;;;;;;11.75;9.80;;;21.30;72.20;;;;;;3591383;39;20043;-75
2021/06/17 04:40:15;;;;;;;14.20;10.05;;;21.40;72.10;;;;;;3597715;39;20443;-75
2021/06/17 04:42:42;;;;;;;14.27;9.70;;;21.40;72.40;;;;;;3585972;39;20035;-75
2021/06/17 04:45:09;;;;;;;11.32;9.27;;;21.50;72.20;;;;;;3589381;39;20084;-75
2021/06/17 04:47:39;;;;;;;12.07;10.13;;;21.50;72.40;;;;;;3597167;39;20024;-75
2021/06/17 04:50:07;;;;;;;12.02;9.52;;;21.60;72.10;;;;;;3596681;39;20340;-75
2021/06/17 04:52:39;;;;;;;11.18;9.82;;;21.60;71.90;;;;;;3599802;39;20032;-75
2021/06/17 04:55:05;;;;;;;11.82;10.40;;;21.70;72.30;;;;;;3597928;39;20514;-75
2021/06/17 04:57:31;;;;;;;12.02;10.52;;;21.70;72.20;;;;;;3594704;39;20047;-75
2021/06/17 04:59:57;;;;;;;11.30;9.20;;;21.80;72.30;;;;;;3598932;39;20028;-75
2021/06/17 05:02:23;;;;;;;12.27;9.52;;;21.80;72.10;;;;;;3588009;39;20020;-75
2021/06/17 05:04:49;;;;;;;11.40;10.20;;;21.90;71.90;;;;;;3595383;39;20035;-75
2021/06/17 05:12:25;;;;;;;11.38;9.85;;;22.10;71.70;;;;;;3595539;39;20148;-75
2021/06/17 05:14:51;;;;;;;11.68;9.75;;;22.20;71.40;;;;;;3597427;39;20649;-75
2021/06/17 05:17:17;;;;;;;14.23;10.50;;;22.30;71.00;;;;;;3590762;39;20401;-75
2021/06/17 05:19:43;;;;;;;14.25;10.77;;;22.40;70.20;;;;;;3595014;39;20062;-72
2021/06/17 05:22:10;;;;;;;12.45;9.98;;;22.50;70.20;;;;;;3594561;39;20077;-72
2021/06/17 05:24:36;;;;;;;18.85;11.52;;;22.70;70.20;;;;;;3595909;39;20036;-73
2021/06/17 05:27:02;;;;;;;16.85;10.48;;;22.80;69.70;;;;;;3595671;39;20035;-72
2021/06/17 05:29:29;;;;;;;11.40;9.82;;;22.90;69.30;;;;;;3589971;39;20039;-72
2021/06/17 05:31:56;;;;;;;11.10;8.80;;;23.00;69.10;;;;;;3598771;39;20381;-72
2021/06/17 05:34:22;;;;;;;12.35;8.27;;;23.00;68.40;;;;;;3596452;39;20024;-74
2021/06/17 05:36:47;;;;;;;11.85;8.50;;;23.00;67.50;;;;;;3597208;39;20035;-74
2021/06/17 05:39:13;;;;;;;14.00;11.27;;;23.00;66.50;;;;;;3599692;39;20046;-74
2021/06/17 05:41:39;;;;;;;16.73;11.73;;;23.10;66.60;;;;;;3585753;39;20028;-74
2021/06/17 05:44:05;;;;;;;18.13;10.02;;;23.20;67.20;;;;;;3587726;39;20035;-75
2021/06/17 05:46:33;;;;;;;14.23;9.65;;;23.20;67.40;;;;;;3598260;39;20035;-75
2021/06/17 05:48:59;;;;;;;15.32;12.15;;;23.30;67.80;;;;;;3587541;39;20043;-75
2021/06/17 05:51:25;;;;;;;13.73;10.52;;;23.40;66.80;;;;;;3597031;39;20119;-75
2021/06/17 05:53:51;;;;;;;15.02;10.55;;;23.40;67.60;;;;;;3595345;39;20028;-75
2021/06/17 05:56:18;;;;;;;13.55;11.15;;;23.50;66.90;;;;;;3583452;39;20048;-77
2021/06/17 05:58:46;;;;;;;13.50;10.45;;;23.60;66.40;;;;;;3596405;39;20075;-76
2021/06/17 06:01:12;;;;;;;15.75;11.35;;;23.70;66.00;;;;;;3586194;39;20855;-75
2021/06/17 06:03:38;;;;;;;14.15;10.57;;;23.80;65.40;;;;;;3596392;39;20079;-73
2021/06/17 06:06:04;;;;;;;12.70;10.25;;;23.90;65.40;;;;;;3596882;39;20053;-74
2021/06/17 06:08:30;;;;;;;13.25;11.20;;;24.00;64.70;;;;;;3589657;39;20024;-73
2021/06/17 06:10:56;;;;;;;11.80;10.05;;;24.20;64.20;;;;;;3585158;39;20034;-74
2021/06/17 06:13:21;;;;;;;12.93;9.88;;;24.30;63.80;;;;;;3588569;40;20032;-75
2021/06/17 06:15:47;;;;;;;10.05;8.93;;;24.40;63.80;;;;;;3569708;39;20352;-74
2021/06/17 06:18:15;;;;;;;13.38;9.30;;;24.50;63.30;;;;;;3592459;39;20036;-73
2021/06/17 06:20:44;;;;;;;13.35;9.48;;;24.60;63.60;;;;;;3595554;39;20036;-73
2021/06/17 06:23:10;;;;;;;10.70;9.07;;;24.60;63.60;;;;;;3596663;39;20116;-73
2021/06/17 06:25:38;;;;;;;15.05;9.68;;;24.70;63.20;;;;;;3596268;39;20728;-72
2021/06/17 06:28:05;;;;;;;12.35;9.02;;;24.90;63.20;;;;;;3596578;39;20025;-73
2021/06/17 06:30:31;;;;;;;11.38;9.70;;;25.00;61.60;;;;;;3596781;39;20075;-73
2021/06/17 06:32:57;;;;;;;12.52;9.48;;;25.10;61.90;;;;;;3594759;39;20165;-74
2021/06/17 06:35:24;;;;;;;10.73;8.95;;;25.10;61.80;;;;;;3594144;39;20027;-73
2021/06/17 06:37:51;;;;;;;11.40;10.10;;;25.30;61.60;;;;;;3593487;39;20591;-74
2021/06/17 06:40:23;;;;;;;10.60;9.50;;;25.30;61.40;;;;;;3596986;39;20118;-73
2021/06/17 06:42:49;;;;;;;12.57;9.68;;;25.40;61.10;;;;;;3588873;39;20027;-72
2021/06/17 06:45:15;;;;;;;10.73;9.35;;;25.50;61.40;;;;;;3593829;39;20095;-73
2021/06/17 06:47:41;;;;;;;12.55;8.68;;;25.60;61.20;;;;;;3594661;39;20036;-73
2021/06/17 06:50:08;;;;;;;10.93;8.95;;;25.70;61.00;;;;;;3599880;39;20341;-73
2021/06/17 06:52:34;;;;;;;12.88;8.75;;;25.80;60.40;;;;;;3594731;39;20027;-73
2021/06/17 06:55:00;;;;;;;10.15;8.88;;;25.90;60.20;;;;;;3595846;39;20032;-73
2021/06/17 06:57:26;;;;;;;11.20;8.63;;;26.10;59.70;;;;;;3590206;39;20083;-73
2021/06/17 06:59:52;;;;;;;11.77;9.20;;;26.20;57.90;;;;;;3593406;39;20499;-72
2021/06/17 07:02:18;;;;;;;10.55;8.77;;;26.30;57.50;;;;;;3596759;39;20035;-73
2021/06/17 07:04:43;;;;;;;12.90;8.43;;;26.30;58.30;;;;;;3598752;39;20027;-73
2021/06/17 07:07:09;;;;;;;9.57;8.57;;;26.40;57.80;;;;;;3586614;39;20044;-73
2021/06/17 07:09:35;;;;;;;9.90;8.77;;;26.40;57.40;;;;;;3599808;39;20448;-73
2021/06/17 07:12:02;;;;;;;12.65;9.27;;;26.60;56.90;;;;;;3592230;39;20051;-73
2021/06/17 07:14:29;;;;;;;11.25;8.95;;;26.60;57.30;;;;;;3596750;39;20116;-73
2021/06/17 07:16:55;;;;;;;11.93;8.48;;;26.70;57.90;;;;;;3596735;39;20427;-73
2021/06/17 07:19:21;;;;;;;10.13;7.63;;;26.80;57.30;;;;;;3597372;39;20032;-73
2021/06/17 07:21:47;;;;;;;13.55;8.15;;;26.90;56.30;;;;;;3594796;39;20036;-79
2021/06/17 07:24:13;;;;;;;9.90;7.70;;;27.00;56.50;;;;;;3594156;39;20294;-73
2021/06/17 07:26:39;;;;;;;9.75;8.07;;;27.00;56.70;;;;;;3593295;39;20043;-74
2021/06/17 07:29:05;;;;;;;10.13;8.15;;;27.30;55.30;;;;;;3595692;39;20076;-74
2021/06/17 07:31:31;;;;;;;10.52;7.75;;;27.30;55.30;;;;;;3588760;39;20124;-73
2021/06/17 07:33:57;;;;;;;11.00;7.85;;;27.40;55.60;;;;;;3589011;39;20040;-73
2021/06/17 07:36:23;;;;;;;10.73;7.40;;;27.50;54.50;;;;;;3597397;39;20051;-74
2021/06/17 07:38:48;;;;;;;9.95;7.93;;;27.60;54.60;;;;;;3596223;39;20901;-73
2021/06/17 07:41:15;;;;;;;14.20;8.07;;;27.60;54.40;;;;;;3589180;39;20089;-73
2021/06/17 07:43:40;;;;;;;12.32;7.88;;;27.80;55.20;;;;;;3596802;39;20043;-73
2021/06/17 07:46:06;;;;;;;10.38;7.75;;;27.90;53.90;;;;;;3586762;39;20035;-74
2021/06/17 07:48:33;;;;;;;9.25;6.85;;;28.00;53.60;;;;;;3589065;39;20124;-74
2021/06/17 07:50:59;;;;;;;8.80;6.93;;;28.10;53.50;;;;;;3595347;39;20039;-73
2021/06/17 07:53:25;;;;;;;13.55;7.20;;;28.20;53.90;;;;;;3595602;39;20121;-73
2021/06/17 07:55:50;;;;;;;10.93;7.22;;;28.30;52.50;;;;;;3595495;39;20043;-73
2021/06/17 07:58:17;;;;;;;8.73;6.72;;;28.50;51.30;;;;;;3584701;40;20035;-72
2021/06/17 08:00:43;;;;;;;10.48;7.18;;;28.50;51.40;;;;;;3597817;39;20031;-72
2021/06/17 08:03:08;;;;;;;8.10;6.68;;;28.50;50.90;;;;;;3592262;39;20047;-72
2021/06/17 08:05:35;;;;;;;9.25;6.18;;;28.60;50.00;;;;;;3589701;39;20396;-71
2021/06/17 08:08:01;;;;;;;11.10;7.00;;;28.70;50.60;;;;;;3593933;39;20140;-72
2021/06/17 08:10:27;;;;;;;17.10;8.75;;;28.70;50.70;;;;;;3591296;39;20031;-72
2021/06/17 08:12:52;;;;;;;7.80;6.25;;;28.80;51.00;;;;;;3595751;39;20019;-72
2021/06/17 08:15:19;;;;;;;6.53;5.47;;;29.00;49.60;;;;;;3589418;39;20778;-72
2021/06/17 08:17:44;;;;;;;6.18;5.57;;;29.10;48.20;;;;;;3591010;39;20333;-72
2021/06/17 08:20:12;;;;;;;10.60;6.28;;;29.10;47.90;;;;;;3594921;39;20039;-72
2021/06/17 08:22:40;;;;;;;7.90;5.40;;;29.20;48.70;;;;;;3593865;39;20021;-72
2021/06/17 08:25:07;;;;;;;8.70;6.03;;;29.10;49.70;;;;;;3592725;39;20034;-72
2021/06/17 08:27:35;;;;;;;7.78;5.82;;;29.30;48.50;;;;;;3583015;39;20031;-72
2021/06/17 08:30:05;;;;;;;11.50;5.45;;;29.40;48.70;;;;;;3592788;39;20032;-72
2021/06/17 08:32:30;;;;;;;11.13;5.22;;;29.60;48.10;;;;;;3587667;39;20039;-73
2021/06/17 08:34:56;;;;;;;10.02;6.05;;;29.70;47.00;;;;;;3593953;39;20313;-71
2021/06/17 08:37:22;;;;;;;5.93;5.38;;;29.80;46.40;;;;;;3595193;39;20439;-74
2021/06/17 08:39:49;;;;;;;10.82;5.45;;;29.90;46.40;;;;;;3592683;39;20085;-70
2021/06/17 08:42:15;;;;;;;9.70;5.63;;;30.00;46.40;;;;;;3592616;39;20080;-71
2021/06/17 08:44:42;;;;;;;11.75;5.70;;;30.00;45.40;;;;;;3595331;39;20804;-73
2021/06/17 08:47:09;;;;;;;7.18;5.65;;;30.10;46.30;;;;;;3590089;39;20038;-69
2021/06/17 08:49:35;;;;;;;7.95;5.47;;;30.20;45.20;;;;;;3585923;39;20394;-71
2021/06/17 08:52:01;;;;;;;5.82;5.22;;;30.20;45.40;;;;;;3594498;39;20059;-71
2021/06/17 08:54:29;;;;;;;5.75;4.70;;;30.20;45.50;;;;;;3592176;39;20615;-71
2021/06/17 08:56:55;;;;;;;5.93;5.07;;;30.30;44.80;;;;;;3594559;39;20383;-71
2021/06/17 08:59:32;;;;;;;6.07;5.10;;;30.30;45.20;;;;;;3594234;39;20039;-71
2021/06/17 09:02:00;;;;;;;8.70;4.85;;;30.50;45.30;;;;;;3595728;39;20062;-71
2021/06/17 09:04:27;;;;;;;6.28;4.82;;;30.60;44.60;;;;;;3596465;39;20020;-71
2021/06/17 09:07:06;;;;;;;8.45;5.53;;;30.70;44.80;;;;;;3594758;39;20598;-71
2021/06/17 09:09:48;;;;;;;7.13;4.65;;;30.80;44.30;;;;;;3597969;39;20032;-71
2021/06/17 09:12:20;;;;;;;8.43;4.97;;;30.90;43.80;;;;;;3597008;39;20044;-71
2021/06/17 09:14:53;;;;;;;6.22;5.00;;;30.90;43.80;;;;;;3595059;39;20032;-71
2021/06/17 09:17:19;;;;;;;6.22;5.05;;;31.00;43.90;;;;;;3590114;39;20048;-71
2021/06/17 09:19:50;;;;;;;10.20;5.05;;;31.10;42.40;;;;;;3596395;39;20050;-71
2021/06/17 09:22:19;;;;;;;8.30;5.65;;;31.10;43.10;;;;;;3594314;39;20040;-72
2021/06/17 09:24:47;;;;;;;5.43;3.90;;;31.30;42.60;;;;;;3595515;39;20055;-71
2021/06/17 09:27:24;;;;;;;8.90;4.40;;;31.30;41.80;;;;;;3596309;39;20501;-73
2021/06/17 09:29:53;;;;;;;7.28;4.25;;;31.30;42.20;;;;;;3588058;39;20039;-72
2021/06/17 09:32:24;;;;;;;6.93;4.38;;;31.40;42.00;;;;;;3585558;39;20239;-72
2021/06/17 09:34:50;;;;;;;7.13;4.00;;;31.50;41.70;;;;;;3592793;39;20039;-72
2021/06/17 09:37:48;;;;;;;5.78;4.88;;;31.60;40.60;;;;;;3597277;39;20032;-72
2021/06/17 09:40:24;;;;;;;5.38;4.13;;;31.70;40.90;;;;;;3575665;39;20114;-73
2021/06/17 09:42:51;;;;;;;8.60;3.67;;;31.80;39.60;;;;;;3593902;39;20761;-72
2021/06/17 09:45:19;;;;;;;6.57;4.28;;;31.80;39.90;;;;;;3596682;39;20088;-75
2021/06/17 09:47:45;;;;;;;5.30;4.10;;;31.80;40.00;;;;;;3595304;39;20035;-72
2021/06/17 09:50:26;;;;;;;4.50;3.47;;;31.90;39.40;;;;;;3591800;39;20111;-72
2021/06/17 09:52:53;;;;;;;4.60;3.55;;;31.90;38.40;;;;;;3593656;39;20043;-73
2021/06/17 09:55:37;;;;;;;5.78;3.60;;;31.90;38.70;;;;;;3591006;39;20050;-73
2021/06/17 09:58:07;;;;;;;4.47;3.25;;;31.90;38.10;;;;;;3598216;39;20042;-72
2021/06/17 10:00:33;;;;;;;5.65;3.40;;;31.90;38.80;;;;;;3595341;39;20039;-72
2021/06/17 10:03:14;;;;;;;6.22;3.20;;;31.90;37.80;;;;;;3592769;39;20028;-72
2021/06/17 10:05:40;;;;;;;5.50;3.42;;;32.00;37.10;;;;;;3598558;39;20112;-72
2021/06/17 10:08:06;;;;;;;4.90;3.60;;;32.00;37.30;;;;;;3594443;39;20025;-73
2021/06/17 10:10:35;;;;;;;5.03;3.47;;;32.00;37.80;;;;;;3599176;39;20458;-72
2021/06/17 10:13:03;;;;;;;4.90;3.60;;;32.20;37.10;;;;;;3588453;39;20625;-72
2021/06/17 10:15:29;;;;;;;6.03;3.80;;;32.20;37.60;;;;;;3596323;39;20032;-73
2021/06/17 10:17:56;;;;;;;5.28;3.65;;;32.20;37.30;;;;;;3598095;39;20141;-72
2021/06/17 10:20:22;;;;;;;7.22;3.55;;;32.20;38.20;;;;;;3583030;39;20113;-73
2021/06/17 10:22:52;;;;;;;3.90;3.53;;;32.40;37.90;;;;;;3595277;39;20120;-73
2021/06/17 10:25:46;;;;;;;5.20;3.70;;;32.40;38.00;;;;;;3597997;39;20034;-76
2021/06/17 10:28:13;;;;;;;3.95;3.55;;;32.50;36.80;;;;;;3585462;39;20774;-73
2021/06/17 10:30:42;;;;;;;6.25;3.30;;;32.60;35.50;;;;;;3596368;39;20023;-72
2021/06/17 10:33:28;;;;;;;5.38;3.60;;;32.50;36.40;;;;;;3587765;39;20040;-72
2021/06/17 10:36:16;;;;;;;3.90;3.50;;;32.50;35.50;;;;;;3594207;39;20034;-72
2021/06/17 10:39:10;;;;;;;4.85;3.63;;;32.50;36.00;;;;;;3595886;39;20047;-72
2021/06/17 10:41:55;;;;;;;6.63;3.50;;;32.60;36.10;;;;;;3598334;39;20746;-72
2021/06/17 10:44:36;;;;;;;;;;;32.60;36.70;;;;;;3583733;39;20040;-72
2021/06/17 10:47:04;;;;;;;6.00;3.22;;;32.80;36.00;;;;;;3594037;39;19939;-73
2021/06/17 10:49:51;;;;;;;6.20;3.80;;;32.80;36.00;;;;;;3598605;39;20068;-75
2021/06/17 10:52:27;;;;;;;7.68;3.58;;;33.00;36.10;;;;;;3594922;39;20107;-72
2021/06/17 10:55:01;;;;;;;3.50;3.20;;;33.30;35.30;;;;;;3596106;39;20035;-74
2021/06/17 10:57:44;;;;;;;5.75;3.50;;;33.40;35.10;;;;;;3595647;39;20121;-73
2021/06/17 11:00:25;;;;;;;6.55;3.60;;;33.40;35.50;;;;;;3592854;39;20040;-72
2021/06/17 11:03:04;;;;;;;6.85;3.35;;;33.30;35.00;;;;;;3589829;39;20465;-74
2021/06/17 11:05:30;;;;;;;8.15;3.47;;;33.20;34.60;;;;;;3591845;39;20024;-73
2021/06/17 11:08:20;;;;;;;6.20;3.35;;;33.20;35.90;;;;;;3588798;39;20031;-73
2021/06/17 11:10:51;;;;;;;8.20;3.58;;;33.30;34.50;;;;;;3592875;39;20214;-73
2021/06/17 11:13:37;;;;;;;9.60;3.60;;;33.20;34.70;;;;;;3595676;39;20112;-74
2021/06/17 11:16:04;;;;;;;3.88;3.45;;;33.20;34.90;;;;;;3596730;39;20153;-74
2021/06/17 11:18:43;;;;;;;5.90;3.13;;;33.20;34.80;;;;;;3598720;39;20871;-75
2021/06/17 11:21:35;;;;;;;3.40;3.00;;;33.20;34.50;;;;;;3592425;39;20057;-72
2021/06/17 11:24:22;;;;;;;4.50;3.30;;;33.20;34.40;;;;;;3586995;39;20036;-71
2021/06/17 11:26:54;;;;;;;5.18;2.75;;;33.20;35.20;;;;;;3592528;39;20024;-77
2021/06/17 11:29:41;;;;;;;4.53;2.90;;;33.30;34.70;;;;;;3582651;39;20596;-75
2021/06/17 11:32:30;;;;;;;5.63;3.33;;;33.40;35.30;;;;;;3587264;39;20028;-74
2021/06/17 11:34:57;;;;;;;4.70;2.97;;;33.60;34.50;;;;;;3597745;39;20039;-75
2021/06/17 11:37:28;;;;;;;4.40;3.33;;;33.70;33.60;;;;;;3588137;39;20144;-76
2021/06/17 11:39:54;;;;;;;5.57;3.45;;;33.70;34.00;;;;;;3577976;39;20040;-73
2021/06/17 11:42:20;;;;;;;4.05;2.92;;;33.60;34.30;;;;;;3583264;39;20454;-71
2021/06/17 11:45:02;;;;;;;5.88;2.97;;;33.60;33.60;;;;;;3593716;39;20544;-71
2021/06/17 11:47:28;;;;;;;5.20;2.95;;;33.70;34.10;;;;;;3593167;39;20048;-71
2021/06/17 11:49:53;;;;;;;4.72;2.97;;;33.70;33.30;;;;;;3589571;39;20128;-72
2021/06/17 11:52:20;;;;;;;5.65;2.92;;;33.70;32.70;;;;;;3592961;39;20032;-71
2021/06/17 11:54:49;;;;;;;5.53;3.30;;;33.70;33.30;;;;;;3595927;39;20182;-71
2021/06/17 11:57:16;;;;;;;3.20;2.83;;;33.80;33.10;;;;;;3596789;39;20105;-71
2021/06/17 11:59:48;;;;;;;4.13;2.85;;;33.80;33.10;;;;;;3594245;39;20031;-71
2021/06/17 12:02:25;;;;;;;4.47;3.25;;;33.70;33.90;;;;;;3595704;39;20036;-72
2021/06/17 12:05:07;;;;;;;5.97;2.70;;;33.80;33.00;;;;;;3589710;39;20279;-71
2021/06/17 12:07:48;;;;;;;3.30;2.83;;;33.90;32.40;;;;;;3593171;39;20432;-71
2021/06/17 12:10:25;;;;;;;2.63;2.40;;;33.90;31.90;;;;;;3582676;39;20041;-71
2021/06/17 12:12:52;;;;;;;3.70;2.67;;;33.90;32.40;;;;;;3597533;39;20088;-71
2021/06/17 12:15:23;;;;;;;4.32;2.55;;;33.90;32.50;;;;;;3587272;39;20196;-71
2021/06/17 12:17:52;;;;;;;3.92;2.78;;;34.00;32.10;;;;;;3596979;39;20047;-71
2021/06/17 12:20:26;;;;;;;3.22;2.40;;;34.00;32.50;;;;;;3596964;39;20148;-71
2021/06/17 12:23:00;;;;;;;3.45;2.33;;;34.10;31.80;;;;;;3595823;39;20309;-71
2021/06/17 12:25:40;;;;;;;4.30;2.83;;;34.10;31.80;;;;;;3590955;39;20039;-71
2021/06/17 12:28:09;;;;;;;3.75;2.65;;;34.30;31.30;;;;;;3590115;39;20054;-71
2021/06/17 12:30:43;;;;;;;3.15;2.45;;;34.30;30.70;;;;;;3595506;39;20411;-71
2021/06/17 12:33:13;;;;;;;3.95;2.47;;;34.20;31.60;;;;;;3597040;39;20488;-71
2021/06/17 12:35:47;;;;;;;4.15;2.53;;;34.20;31.80;;;;;;3598437;39;20044;-71
2021/06/17 12:38:21;;;;;;;5.03;3.13;;;34.20;30.80;;;;;;3587571;39;20025;-71
2021/06/17 12:40:47;;;;;;;3.15;2.40;;;34.20;31.10;;;;;;3590295;39;20035;-71
2021/06/17 12:43:40;;;;;;;4.70;2.63;;;34.30;31.50;;;;;;3593661;39;20079;-71
2021/06/17 12:46:08;;;;;;;7.82;2.90;;;34.40;32.40;;;;;;3586931;39;20039;-71
2021/06/17 12:54:42;;;;;;;4.00;2.92;;;34.60;31.90;;;;;;3585250;39;19939;-71
2021/06/17 12:57:12;;;;;;;4.68;2.97;;;34.70;32.40;;;;;;3586877;39;20636;-71
2021/06/17 12:59:57;;;;;;;4.53;3.25;;;34.80;32.40;;;;;;3594264;39;20024;-71
2021/06/17 13:02:22;;;;;;;4.47;3.63;;;34.80;32.50;;;;;;3597777;39;20047;-71
2021/06/17 13:05:05;;;;;;;7.03;3.63;;;34.60;32.30;;;;;;3590178;39;20051;-71
2021/06/17 13:07:32;;;;;;;3.50;2.95;;;34.40;32.70;;;;;;3593365;39;20443;-71